Time;durP1;ratioP1;P1;durP2;ratioP2;P2;SDS_P1;SDS_P2;PMS_P1;PMS_P2;Temp;Humidity;BMP_temperature;BMP_pressure;BME280_temperature;BME280_humidity;BME280_pressure;Samples;Min_cycle;Max_cycle;Signal;HPM_P1;HPM_P2
2022/08/04 00:02:41;;;;;;;17.30;6.05;;;21.00;99.90;21.10;99153.00;;;;4992593;28;82622;-59
2022/08/04 00:05:35;;;;;;;26.55;5.47;;;20.70;99.90;21.20;99148.00;;;;4980950;28;81943;-59
2022/08/04 00:08:07;;;;;;;17.77;5.57;;;20.80;99.90;21.20;99151.00;;;;4984575;28;82140;-60
2022/08/04 00:10:34;;;;;;;17.38;6.57;;;21.30;99.90;21.20;99150.00;;;;5001905;28;82257;-60
2022/08/04 00:13:04;;;;;;;20.80;6.47;;;20.90;99.90;21.10;99153.00;;;;4995296;28;83142;-60
2022/08/04 00:15:33;;;;;;;16.67;6.65;;;20.90;99.90;21.10;99164.00;;;;5005150;28;82267;-60
2022/08/04 00:18:14;;;;;;;14.95;7.38;;;20.80;99.90;21.00;99158.00;;;;5002534;28;83167;-60
2022/08/04 00:20:41;;;;;;;18.00;7.03;;;20.80;99.90;21.00;99159.00;;;;4989851;28;83628;-59
2022/08/04 00:23:08;;;;;;;14.27;6.25;;;21.00;99.90;21.00;99161.00;;;;4999186;28;82551;-60
2022/08/04 00:25:40;;;;;;;12.43;6.05;;;20.60;99.90;20.90;99159.00;;;;4978333;28;82343;-60
2022/08/04 00:28:06;;;;;;;15.68;6.63;;;20.70;99.90;20.90;99152.00;;;;4993052;28;82428;-60
2022/08/04 00:30:33;;;;;;;11.50;5.50;;;20.40;99.90;20.90;99155.00;;;;4995524;28;82015;-60
2022/08/04 00:32:59;;;;;;;17.52;6.32;;;20.40;99.90;20.80;99148.00;;;;4993192;28;83514;-60
2022/08/04 00:35:27;;;;;;;20.38;5.93;;;20.60;99.90;20.80;99155.00;;;;4986871;28;83434;-60
2022/08/04 00:37:54;;;;;;;14.82;6.10;;;20.60;99.90;20.80;99151.00;;;;4994469;28;81894;-60
2022/08/04 00:40:49;;;;;;;17.38;5.90;;;20.20;99.90;20.70;99162.00;;;;4997793;28;83693;-60
2022/08/04 00:43:34;;;;;;;15.70;7.80;;;20.40;99.90;20.60;99168.00;;;;4993557;28;82954;-60
2022/08/04 00:46:19;;;;;;;13.35;6.43;;;;;20.60;99166.00;;;;4989965;28;84355;-60
2022/08/04 00:49:21;;;;;;;15.88;7.55;;;20.30;99.90;20.60;99174.00;;;;4998638;28;81916;-60
2022/08/04 00:51:57;;;;;;;17.67;6.82;;;;;20.60;99167.00;;;;4990475;28;83508;-60
2022/08/04 00:54:47;;;;;;;18.63;7.38;;;20.20;99.90;20.60;99166.00;;;;4990700;28;82580;-60
2022/08/04 00:57:41;;;;;;;15.45;7.70;;;20.40;99.90;20.60;99170.00;;;;4996210;28;83109;-60
2022/08/04 01:00:15;;;;;;;16.25;6.78;;;20.20;99.90;20.60;99181.00;;;;4993281;28;82307;-60
2022/08/04 01:02:50;;;;;;;13.05;5.90;;;20.60;99.90;20.50;99173.00;;;;4993782;28;83423;-60
2022/08/04 01:06:04;;;;;;;12.73;5.45;;;20.50;99.90;20.60;99178.00;;;;4999944;28;83738;-59
2022/08/04 01:09:10;;;;;;;14.18;5.65;;;20.30;99.90;20.60;99179.00;;;;4993800;28;83510;-59
2022/08/04 01:12:39;;;;;;;16.75;6.55;;;20.40;99.90;20.60;99178.00;;;;4999116;28;83368;-59
2022/08/04 01:15:41;;;;;;;18.08;6.22;;;20.40;99.90;20.60;99181.00;;;;5018057;28;83336;-59
2022/08/04 01:18:13;;;;;;;15.15;6.03;;;20.70;99.90;20.60;99169.00;;;;4967357;28;82756;-59
2022/08/04 01:21:20;;;;;;;16.42;6.03;;;20.10;99.90;20.50;99174.00;;;;4988753;28;82500;-59
2022/08/04 01:24:11;;;;;;;19.98;6.53;;;20.50;99.90;20.40;99180.00;;;;4994140;28;82009;-59
2022/08/04 01:27:03;;;;;;;16.88;5.88;;;20.20;99.90;20.40;99179.00;;;;4994883;28;82887;-60
2022/08/04 01:29:39;;;;;;;11.45;5.60;;;20.20;99.90;20.40;99179.00;;;;4993193;28;87463;-59
2022/08/04 01:32:23;;;;;;;18.38;6.07;;;20.30;99.90;20.40;99179.00;;;;4986424;28;86466;-59
2022/08/04 01:35:10;;;;;;;11.25;5.88;;;20.10;99.90;20.30;99187.00;;;;4985445;28;87467;-59
2022/08/04 01:37:45;;;;;;;14.23;5.82;;;;;20.30;99189.00;;;;4975227;28;88470;-62
2022/08/04 01:40:14;;;;;;;19.05;6.20;;;20.50;99.90;20.30;99182.00;;;;4985127;28;89856;-59
2022/08/04 01:42:44;;;;;;;13.75;5.55;;;20.10;99.90;20.30;99178.00;;;;4990283;28;88244;-59
2022/08/04 01:45:13;;;;;;;12.88;5.70;;;20.30;99.90;20.20;99187.00;;;;4982534;28;86939;-59
2022/08/04 01:47:58;;;;;;;9.52;5.18;;;20.10;99.90;20.20;99174.00;;;;4991654;28;87136;-59
2022/08/04 01:50:26;;;;;;;13.07;5.07;;;20.10;99.90;20.20;99189.00;;;;4988086;28;87752;-60
2022/08/04 01:52:55;;;;;;;9.70;4.97;;;20.20;99.90;20.30;99184.00;;;;4988685;28;87275;-60
2022/08/04 01:55:22;;;;;;;7.40;5.20;;;;;20.30;99191.00;;;;4991168;28;87044;-60
2022/08/04 01:57:52;;;;;;;10.50;5.70;;;20.00;99.90;20.30;99194.00;;;;4991249;28;87087;-60
2022/08/04 02:00:26;;;;;;;11.55;6.28;;;20.10;99.90;20.30;99193.00;;;;4992928;28;88121;-60
2022/08/04 02:02:54;;;;;;;18.92;6.18;;;20.30;99.90;20.30;99194.00;;;;4991286;28;87467;-60
2022/08/04 02:05:24;;;;;;;14.27;6.57;;;20.10;99.90;20.30;99193.00;;;;4989543;28;87856;-60
2022/08/04 02:08:18;;;;;;;8.45;6.05;;;20.10;99.90;20.40;99202.00;;;;4992304;28;87022;-60
2022/08/04 02:11:14;;;;;;;10.93;6.88;;;20.10;99.90;20.30;99191.00;;;;4993954;28;87658;-60
2022/08/04 02:14:01;;;;;;;18.55;5.88;;;20.20;99.90;20.40;99197.00;;;;4973091;28;88459;-60
2022/08/04 02:16:29;;;;;;;16.42;6.93;;;;;20.30;99188.00;;;;4992418;28;88387;-60
2022/08/04 02:18:55;;;;;;;11.68;6.55;;;;;20.40;99196.00;;;;4991847;28;87138;-60
2022/08/04 02:21:25;;;;;;;13.63;6.50;;;20.20;99.90;20.40;99188.00;;;;4990039;28;87796;-60
2022/08/04 02:24:06;;;;;;;8.52;5.38;;;20.70;99.90;20.40;99189.00;;;;4989547;28;87377;-60
2022/08/04 02:26:35;;;;;;;13.20;5.90;;;20.10;99.90;20.50;99193.00;;;;4990115;28;87223;-60
2022/08/04 02:29:10;;;;;;;13.88;6.70;;;20.20;99.90;20.40;99187.00;;;;4992786;28;87376;-60
2022/08/04 02:31:47;;;;;;;10.90;6.40;;;18.70;99.90;20.50;99187.00;;;;4987661;28;88779;-60
2022/08/04 02:34:38;;;;;;;11.02;6.25;;;20.30;99.90;20.50;99188.00;;;;4992827;28;89358;-60
2022/08/04 02:37:05;;;;;;;12.98;5.68;;;20.40;99.90;20.60;99190.00;;;;4989976;28;86919;-60
2022/08/04 02:39:35;;;;;;;10.02;6.13;;;20.90;99.90;20.90;99195.00;;;;4989905;28;87123;-60
2022/08/04 02:42:04;;;;;;;13.70;6.95;;;20.60;99.90;21.20;99189.00;;;;4989697;28;88692;-60
2022/08/04 02:44:31;;;;;;;13.15;5.90;;;21.40;99.90;21.70;99201.00;;;;4994892;28;88518;-60
2022/08/04 02:47:00;;;;;;;12.07;7.22;;;21.70;99.90;22.20;99193.00;;;;4990173;28;87544;-61
2022/08/04 02:49:29;;;;;;;17.45;6.90;;;22.30;99.90;22.50;99199.00;;;;4991232;28;86317;-60
2022/08/04 02:51:57;;;;;;;13.35;6.18;;;22.50;99.90;22.80;99196.00;;;;4993542;28;87407;-60
2022/08/04 02:54:29;;;;;;;14.05;6.78;;;22.80;99.90;23.30;99194.00;;;;4997233;28;88307;-61
2022/08/04 02:56:59;;;;;;;13.55;5.75;;;23.20;99.90;23.60;99200.00;;;;4994455;28;88086;-60
2022/08/04 02:59:28;;;;;;;13.18;6.75;;;23.40;99.90;23.80;99195.00;;;;4985339;28;87373;-60
2022/08/04 03:01:56;;;;;;;12.00;5.90;;;23.50;99.90;24.00;99206.00;;;;4993413;28;87590;-61
2022/08/04 03:04:57;;;;;;;12.55;6.82;;;23.70;99.90;24.10;99206.00;;;;4997007;28;89752;-60
2022/08/04 03:07:50;;;;;;;10.52;6.45;;;23.80;99.90;24.20;99206.00;;;;4994997;28;87254;-60
2022/08/04 03:10:48;;;;;;;11.35;6.72;;;24.00;99.90;24.40;99205.00;;;;4976220;28;86931;-60
2022/08/04 03:14:05;;;;;;;8.10;5.25;;;24.00;99.90;24.70;99208.00;;;;4990460;28;87885;-59
2022/08/04 03:17:27;;;;;;;12.35;6.15;;;24.60;99.00;25.10;99209.00;;;;4996671;28;87486;-60
2022/08/04 03:20:28;;;;;;;10.32;6.63;;;24.80;99.90;25.40;99214.00;;;;4986421;28;86834;-60
2022/08/04 03:23:26;;;;;;;13.20;6.40;;;24.90;99.90;25.40;99206.00;;;;4996125;28;87143;-60
2022/08/04 03:25:52;;;;;;;13.48;6.00;;;;;25.20;99213.00;;;;4984632;28;89705;-60
2022/08/04 03:29:17;;;;;;;12.38;6.30;;;24.80;98.40;25.20;99212.00;;;;4993857;28;88162;-60
2022/08/04 03:32:39;;;;;;;16.65;6.47;;;25.00;98.00;25.50;99210.00;;;;4989408;28;87023;-60
2022/08/04 03:35:52;;;;;;;10.57;7.18;;;25.10;97.80;25.70;99218.00;;;;4983702;28;87059;-60
2022/08/04 03:38:47;;;;;;;12.45;6.70;;;23.70;96.90;25.80;99210.00;;;;4993502;28;87562;-60
2022/08/04 03:41:55;;;;;;;10.85;6.45;;;25.40;97.30;26.00;99219.00;;;;4981938;28;87544;-60
2022/08/04 03:45:13;;;;;;;13.65;7.88;;;25.50;99.90;26.20;99222.00;;;;5008792;28;87018;-60
2022/08/04 03:47:57;;;;;;;15.77;7.93;;;25.70;97.80;26.30;99225.00;;;;4991991;28;86260;-60
2022/08/04 03:54:12;;;;;;;11.33;7.00;;;26.20;99.90;26.70;99231.00;;;;4988994;28;88335;-60
2022/08/04 03:57:18;;;;;;;25.30;8.93;;;26.10;99.90;26.90;99233.00;;;;4993622;28;88654;-60
2022/08/04 04:00:10;;;;;;;13.60;8.10;;;26.90;99.90;27.50;99229.00;;;;4991854;28;86982;-60
2022/08/04 04:03:25;;;;;;;9.85;7.50;;;27.30;99.90;27.70;99244.00;;;;4992837;28;87772;-60
2022/08/04 04:06:26;;;;;;;12.13;6.97;;;27.30;96.20;28.00;99238.00;;;;4991744;28;88061;-60
2022/08/04 04:09:07;;;;;;;10.85;7.10;;;;;28.20;99237.00;;;;4971692;28;87213;-60
2022/08/04 04:11:40;;;;;;;18.35;7.45;;;;;28.30;99233.00;;;;4993355;28;87110;-60
2022/08/04 04:14:15;;;;;;;14.55;8.35;;;;;28.40;99240.00;;;;4991047;28;87613;-61
2022/08/04 04:17:25;;;;;;;13.73;6.20;;;27.70;94.80;28.30;99241.00;;;;4989453;28;87424;-61
2022/08/04 04:20:22;;;;;;;13.15;7.00;;;27.70;99.90;28.40;99245.00;;;;4989443;28;86916;-60
2022/08/04 04:23:43;;;;;;;12.88;7.43;;;27.90;95.30;28.50;99245.00;;;;4983981;28;87110;-60
2022/08/04 04:26:53;;;;;;;16.23;6.85;;;27.40;97.50;28.40;99247.00;;;;4982719;28;88607;-60
2022/08/04 04:29:59;;;;;;;12.98;6.53;;;27.50;99.90;28.50;99251.00;;;;4989015;28;88766;-60
2022/08/04 04:32:59;;;;;;;12.52;6.18;;;27.80;99.90;28.50;99246.00;;;;4996042;28;87368;-60
2022/08/04 04:36:02;;;;;;;10.18;6.22;;;27.50;94.80;28.30;99239.00;;;;4998317;28;87121;-59
2022/08/04 04:38:44;;;;;;;9.88;5.57;;;27.40;97.30;28.40;99248.00;;;;4995837;28;87624;-60
2022/08/04 04:41:16;;;;;;;9.02;5.10;;;;;28.50;99255.00;;;;4994634;28;88461;-60
2022/08/04 04:44:15;;;;;;;14.13;4.85;;;27.20;99.90;28.50;99245.00;;;;4974173;28;87236;-60
2022/08/04 04:46:44;;;;;;;12.55;5.28;;;;;28.20;99251.00;;;;4987363;28;86609;-60
2022/08/04 04:49:21;;;;;;;10.45;4.78;;;27.30;93.00;28.00;99260.00;;;;4989501;28;87613;-60
2022/08/04 04:52:29;;;;;;;7.28;4.40;;;27.30;93.50;28.00;99259.00;;;;4989904;28;88421;-60
2022/08/04 04:55:41;;;;;;;10.75;4.85;;;27.50;93.80;28.20;99257.00;;;;4984489;28;88179;-60
2022/08/04 04:58:14;;;;;;;9.70;4.97;;;27.80;93.10;28.50;99263.00;;;;5011971;28;87581;-60
2022/08/04 05:01:02;;;;;;;9.57;4.88;;;27.70;99.90;28.60;99266.00;;;;4987701;28;87425;-60
2022/08/04 05:04:12;;;;;;;13.05;4.72;;;28.00;99.90;28.80;99265.00;;;;4999429;28;87227;-60
2022/08/04 05:07:24;;;;;;;13.43;4.70;;;28.40;92.60;28.80;99273.00;;;;4995645;28;87027;-59
2022/08/04 05:10:22;;;;;;;8.43;4.70;;;28.00;91.60;28.60;99270.00;;;;4978755;28;87111;-59
2022/08/04 05:13:19;;;;;;;11.60;4.50;;;27.90;92.10;28.60;99266.00;;;;4993910;28;87946;-60
2022/08/04 05:15:49;;;;;;;14.20;4.70;;;28.00;93.00;28.80;99272.00;;;;4993314;28;87800;-60
2022/08/04 05:18:26;;;;;;;10.32;4.40;;;28.20;92.00;28.90;99269.00;;;;4988956;28;87087;-60
2022/08/04 05:21:08;;;;;;;6.32;3.88;;;28.50;92.10;29.20;99263.00;;;;4973308;28;87041;-60
2022/08/04 05:23:43;;;;;;;10.95;4.30;;;27.90;92.50;28.70;99270.00;;;;4995233;28;89065;-61
2022/08/04 05:26:15;;;;;;;8.52;4.25;;;27.70;92.80;28.40;99259.00;;;;4987963;28;88259;-60
2022/08/04 05:28:57;;;;;;;9.32;3.95;;;27.40;92.60;28.20;99260.00;;;;4988362;28;87522;-60
2022/08/04 05:31:42;;;;;;;7.28;4.38;;;27.70;99.30;28.60;99262.00;;;;4991741;28;86985;-60
2022/08/04 05:34:14;;;;;;;10.00;4.55;;;27.90;92.40;28.70;99246.00;;;;4989401;28;87546;-60
2022/08/04 05:36:53;;;;;;;10.32;3.97;;;27.80;91.70;28.40;99259.00;;;;4987287;28;88617;-60
2022/08/04 05:39:24;;;;;;;6.60;3.58;;;27.70;92.30;28.30;99246.00;;;;4985954;28;87412;-60
2022/08/04 05:41:52;;;;;;;7.70;3.65;;;27.90;91.90;28.60;99260.00;;;;4977477;28;86245;-60
2022/08/04 05:44:21;;;;;;;10.10;3.90;;;28.10;91.80;28.90;99257.00;;;;5001732;28;87693;-60
2022/08/04 05:46:51;;;;;;;10.55;3.70;;;27.70;94.30;28.80;99271.00;;;;4995297;28;88315;-61
2022/08/04 05:49:18;;;;;;;14.40;3.78;;;27.20;91.90;27.90;99261.00;;;;4980164;28;88020;-61
2022/08/04 05:51:46;;;;;;;7.35;3.40;;;26.70;99.90;27.70;99261.00;;;;4993919;28;87077;-61
2022/08/04 05:54:13;;;;;;;13.13;3.58;;;27.30;92.40;27.80;99262.00;;;;4993317;28;87682;-61
2022/08/04 05:56:41;;;;;;;10.23;3.28;;;27.70;92.90;27.80;99265.00;;;;4993125;28;89009;-59
2022/08/04 05:59:09;;;;;;;8.95;3.83;;;27.40;92.60;28.20;99263.00;;;;4994445;28;87327;-60
2022/08/04 06:01:38;;;;;;;8.35;3.08;;;27.90;92.30;28.70;99269.00;;;;4989858;28;87043;-60
2022/08/04 06:04:05;;;;;;;10.90;3.50;;;28.60;99.90;28.90;99269.00;;;;4990674;28;87934;-60
2022/08/04 06:06:33;;;;;;;8.98;3.50;;;28.40;99.90;29.30;99264.00;;;;4989678;28;88437;-60
2022/08/04 06:08:59;;;;;;;10.40;3.35;;;;;29.40;99272.00;;;;4991621;28;86941;-60
2022/08/04 06:11:28;;;;;;;9.20;4.00;;;28.30;92.10;29.00;99271.00;;;;4992209;28;86909;-60
2022/08/04 06:13:59;;;;;;;8.02;4.25;;;28.20;92.10;28.90;99266.00;;;;4990105;28;88575;-60
2022/08/04 06:16:34;;;;;;;10.65;3.78;;;28.10;96.20;28.70;99275.00;;;;4994464;28;88444;-60
2022/08/04 06:19:05;;;;;;;8.88;3.60;;;27.70;91.40;28.30;99256.00;;;;4993634;28;87076;-60
2022/08/04 06:21:34;;;;;;;7.97;4.28;;;27.20;92.50;27.70;99269.00;;;;4992987;28;87009;-60
2022/08/04 06:24:01;;;;;;;9.23;4.53;;;26.80;93.30;27.20;99274.00;;;;4989349;28;87530;-60
2022/08/04 06:26:32;;;;;;;8.32;4.30;;;26.70;99.90;27.00;99271.00;;;;4993177;28;87520;-59
2022/08/04 06:29:01;;;;;;;11.65;5.07;;;26.60;93.60;26.90;99273.00;;;;4991174;28;86990;-60
2022/08/04 06:31:42;;;;;;;11.15;4.35;;;26.60;93.30;26.80;99275.00;;;;4991995;28;86289;-59
2022/08/04 06:34:13;;;;;;;6.82;3.47;;;26.40;92.40;26.60;99272.00;;;;4988486;28;87472;-59
2022/08/04 06:36:41;;;;;;;9.82;3.65;;;26.50;99.90;26.50;99283.00;;;;4986628;28;88457;-61
2022/08/04 06:39:10;;;;;;;6.22;3.50;;;26.50;99.90;26.50;99275.00;;;;4990425;28;88007;-60
2022/08/04 06:41:36;;;;;;;10.48;3.10;;;;;26.40;99270.00;;;;4991588;28;86909;-60
2022/08/04 06:44:06;;;;;;;9.90;3.40;;;26.00;96.90;26.20;99278.00;;;;4988693;28;88758;-61
2022/08/04 06:46:37;;;;;;;6.45;3.60;;;25.90;92.50;26.10;99286.00;;;;4992429;28;89093;-60
2022/08/04 06:49:04;;;;;;;8.98;3.33;;;25.90;91.70;26.10;99282.00;;;;4994049;28;87304;-61
2022/08/04 06:51:32;;;;;;;7.22;3.30;;;25.80;99.90;26.20;99277.00;;;;4990269;28;87139;-61
2022/08/04 06:53:59;;;;;;;7.97;3.05;;;;;26.20;99276.00;;;;4986896;28;87973;-61
2022/08/04 06:56:28;;;;;;;8.35;2.80;;;26.30;99.90;26.30;99270.00;;;;4988593;28;87069;-62
2022/08/04 06:58:54;;;;;;;8.30;2.90;;;26.00;90.80;26.20;99277.00;;;;4991707;28;87264;-61
2022/08/04 07:01:22;;;;;;;9.55;2.58;;;26.10;91.30;26.30;99269.00;;;;4994123;28;87819;-61
2022/08/04 07:03:48;;;;;;;7.57;3.10;;;;;26.50;99270.00;;;;4981509;28;89672;-61
2022/08/04 07:06:15;;;;;;;10.02;3.10;;;;;26.20;99281.00;;;;4989890;28;88632;-61
2022/08/04 07:08:42;;;;;;;8.82;2.75;;;25.80;93.70;26.30;99276.00;;;;4980403;28;86898;-61
2022/08/04 07:11:09;;;;;;;7.72;2.97;;;26.10;91.10;26.30;99271.00;;;;4987202;28;86939;-60
2022/08/04 07:13:35;;;;;;;7.45;2.83;;;;;26.40;99280.00;;;;4984326;28;88791;-61
2022/08/04 07:16:02;;;;;;;7.43;2.85;;;;;26.50;99271.00;;;;4999201;28;88584;-60
2022/08/04 07:18:31;;;;;;;12.57;3.20;;;26.50;99.90;26.50;99271.00;;;;4976375;28;87464;-60
2022/08/04 07:20:57;;;;;;;7.25;3.08;;;26.30;90.90;26.50;99263.00;;;;4982004;28;86180;-61
2022/08/04 07:23:25;;;;;;;5.60;2.92;;;26.10;90.50;26.40;99268.00;;;;4986799;28;87611;-59
2022/08/04 07:25:57;;;;;;;7.75;2.88;;;26.20;90.70;26.40;99260.00;;;;4990816;28;87792;-59
2022/08/04 07:28:28;;;;;;;7.85;3.20;;;26.30;98.40;26.60;99268.00;;;;4986452;28;88231;-61
2022/08/04 07:30:57;;;;;;;7.90;3.28;;;26.40;90.10;26.60;99264.00;;;;4991606;28;86956;-61
2022/08/04 07:33:24;;;;;;;6.07;2.83;;;26.40;90.40;26.60;99267.00;;;;4985672;28;87498;-61
2022/08/04 07:35:56;;;;;;;8.30;2.90;;;26.40;90.50;26.60;99260.00;;;;4996370;28;87341;-61
2022/08/04 07:38:23;;;;;;;10.43;3.17;;;26.30;99.90;26.70;99267.00;;;;4988460;28;86890;-61
2022/08/04 07:40:50;;;;;;;5.40;2.75;;;;;26.60;99264.00;;;;4985895;28;86968;-60
2022/08/04 07:43:16;;;;;;;8.07;3.10;;;;;26.70;99256.00;;;;4998855;28;87702;-61
2022/08/04 07:45:43;;;;;;;7.68;2.63;;;26.60;90.30;26.90;99269.00;;;;5001974;28;88548;-60
2022/08/04 07:48:13;;;;;;;4.18;2.97;;;26.80;90.10;27.00;99261.00;;;;4991799;28;87012;-59
2022/08/04 07:50:42;;;;;;;8.80;2.78;;;26.80;89.50;27.00;99252.00;;;;4993553;28;87757;-59
2022/08/04 07:53:09;;;;;;;6.65;2.60;;;;;27.00;99258.00;;;;4987794;28;89748;-60
2022/08/04 07:55:36;;;;;;;5.43;2.30;;;26.50;99.90;27.00;99258.00;;;;4988389;28;88769;-60
2022/08/04 07:58:02;;;;;;;6.03;2.05;;;;;26.90;99274.00;;;;4990643;28;87002;-62
2022/08/04 08:00:29;;;;;;;7.18;2.50;;;;;26.80;99260.00;;;;4990141;28;86933;-60
2022/08/04 08:02:56;;;;;;;9.77;2.55;;;26.70;87.50;26.90;99260.00;;;;4987961;28;87777;-60
2022/08/04 08:05:22;;;;;;;5.63;2.50;;;27.10;99.90;27.00;99250.00;;;;4989972;28;87242;-60
2022/08/04 08:07:50;;;;;;;3.92;2.50;;;26.90;87.70;27.10;99261.00;;;;4991232;28;86942;-60
2022/08/04 08:10:17;;;;;;;6.00;2.95;;;;;27.10;99256.00;;;;4989335;28;86383;-60
2022/08/04 08:12:44;;;;;;;8.48;2.40;;;;;27.10;99260.00;;;;4991803;28;87573;-61
2022/08/04 08:15:11;;;;;;;7.10;2.35;;;27.10;92.30;27.20;99258.00;;;;4990373;28;87883;-61
2022/08/04 08:17:38;;;;;;;5.68;2.85;;;;;27.10;99265.00;;;;4994153;28;87853;-60
2022/08/04 08:20:07;;;;;;;3.42;2.58;;;26.80;85.60;27.10;99255.00;;;;4979832;28;87567;-60
2022/08/04 08:22:36;;;;;;;6.25;2.90;;;26.70;86.70;27.00;99251.00;;;;4983389;28;87903;-60
2022/08/04 08:25:05;;;;;;;7.50;2.65;;;26.80;87.70;27.10;99254.00;;;;4988482;28;88242;-60
2022/08/04 08:27:33;;;;;;;5.68;2.80;;;27.00;97.80;27.20;99268.00;;;;4993215;28;87024;-60
2022/08/04 08:29:59;;;;;;;5.95;2.72;;;;;27.40;99262.00;;;;4992010;28;87065;-60
2022/08/04 08:32:26;;;;;;;8.65;3.35;;;27.20;89.70;27.50;99258.00;;;;4997650;28;86927;-61
2022/08/04 08:34:53;;;;;;;8.73;3.13;;;;;27.60;99256.00;;;;4988801;28;87487;-60
2022/08/04 08:37:30;;;;;;;4.05;2.83;;;;;27.70;99262.00;;;;4988863;28;87431;-61
2022/08/04 08:40:28;;;;;;;7.32;3.22;;;27.00;99.90;27.70;99254.00;;;;4983463;28;87628;-60
2022/08/04 08:42:54;;;;;;;8.80;3.22;;;;;27.80;99263.00;;;;4990996;28;89071;-60
2022/08/04 08:45:51;;;;;;;6.90;3.15;;;27.30;89.20;27.50;99269.00;;;;4987126;28;89369;-60
2022/08/04 08:48:38;;;;;;;6.03;3.50;;;26.90;89.70;27.30;99268.00;;;;4993446;28;86963;-61
2022/08/04 08:51:27;;;;;;;7.40;3.60;;;26.90;90.30;27.50;99260.00;;;;4995458;28;87072;-61
2022/08/04 08:54:33;;;;;;;10.70;3.67;;;27.60;90.10;28.00;99257.00;;;;4994406;28;88736;-60
2022/08/04 08:57:40;;;;;;;5.25;3.58;;;27.80;87.50;28.30;99261.00;;;;4989004;28;87018;-60
2022/08/04 09:00:27;;;;;;;5.45;3.25;;;27.90;87.90;28.30;99255.00;;;;4984138;28;87039;-59
2022/08/04 09:03:33;;;;;;;5.78;3.75;;;28.40;86.30;28.10;99273.00;;;;4991700;28;86319;-61
2022/08/04 09:06:32;;;;;;;6.55;3.53;;;27.70;84.80;28.10;99258.00;;;;4983707;28;87769;-60
2022/08/04 09:09:42;;;;;;;8.15;4.07;;;28.00;87.10;28.30;99255.00;;;;4983106;28;87908;-60
2022/08/04 09:12:59;;;;;;;8.25;3.60;;;28.10;99.90;28.60;99262.00;;;;4996351;28;87988;-59
2022/08/04 09:16:15;;;;;;;7.10;3.53;;;27.80;99.90;28.70;99257.00;;;;4995254;28;86968;-61
2022/08/04 09:19:10;;;;;;;6.55;3.40;;;28.20;88.90;28.50;99265.00;;;;4997101;28;88455;-61
2022/08/04 09:22:00;;;;;;;4.90;3.67;;;27.80;99.90;28.40;99263.00;;;;5004016;28;87513;-61
2022/08/04 09:24:47;;;;;;;7.43;4.10;;;;;28.40;99262.00;;;;4995662;28;86923;-61
2022/08/04 09:27:13;;;;;;;7.93;4.47;;;;;28.70;99260.00;;;;4991890;28;87666;-61
2022/08/04 09:29:50;;;;;;;6.72;4.38;;;27.90;92.70;28.60;99264.00;;;;4993421;28;88028;-61
2022/08/04 09:32:37;;;;;;;7.13;4.53;;;27.90;89.80;28.40;99270.00;;;;4971933;28;87330;-61
2022/08/04 09:35:18;;;;;;;6.22;4.60;;;27.60;89.60;28.00;99263.00;;;;4997922;28;87091;-61
2022/08/04 09:38:03;;;;;;;9.23;5.30;;;27.50;90.50;28.00;99261.00;;;;4995049;28;87060;-61
2022/08/04 09:41:09;;;;;;;8.98;4.88;;;27.70;99.90;28.30;99243.00;;;;4983637;28;89732;-61
2022/08/04 09:44:24;;;;;;;7.50;4.82;;;28.20;89.80;28.70;99248.00;;;;4987010;28;88203;-61
2022/08/04 09:47:25;;;;;;;8.75;4.32;;;28.40;99.90;28.80;99260.00;;;;4996625;28;87003;-61
2022/08/04 09:50:14;;;;;;;12.63;4.40;;;28.50;89.70;28.90;99254.00;;;;4995168;28;87024;-60
2022/08/04 09:53:02;;;;;;;7.88;4.65;;;28.50;87.20;29.00;99246.00;;;;4992592;28;88679;-61
2022/08/04 09:55:37;;;;;;;7.90;4.65;;;;;28.80;99248.00;;;;4999211;28;87183;-61
2022/08/04 09:58:21;;;;;;;8.30;4.82;;;28.60;87.60;29.00;99244.00;;;;4995596;28;87719;-61
2022/08/04 10:01:05;;;;;;;8.70;5.22;;;28.80;85.80;29.20;99245.00;;;;4985906;28;86173;-61
2022/08/04 10:03:37;;;;;;;7.50;4.93;;;28.90;85.60;29.40;99234.00;;;;4996968;28;87548;-60
2022/08/04 10:06:32;;;;;;;8.45;5.10;;;29.10;85.90;29.50;99241.00;;;;4988030;28;87271;-61
2022/08/04 10:09:43;;;;;;;8.35;5.30;;;29.30;85.10;29.80;99238.00;;;;4982374;28;88147;-62
2022/08/04 10:12:50;;;;;;;7.40;5.23;;;29.40;86.70;29.80;99246.00;;;;4987830;28;87340;-59
2022/08/04 10:15:27;;;;;;;9.80;5.05;;;29.20;87.70;29.60;99255.00;;;;5000382;28;87764;-60
2022/08/04 10:18:12;;;;;;;7.28;5.07;;;29.00;93.60;29.50;99244.00;;;;4991077;28;87134;-60
2022/08/04 10:21:18;;;;;;;9.50;5.32;;;28.80;88.40;29.20;99254.00;;;;4991257;28;87088;-61
2022/08/04 10:24:24;;;;;;;9.15;6.00;;;28.70;93.00;29.10;99256.00;;;;4994577;28;86882;-61
2022/08/04 10:26:51;;;;;;;7.65;5.50;;;;;29.10;99264.00;;;;4993860;28;87492;-61
2022/08/04 10:29:43;;;;;;;6.90;5.13;;;28.70;90.00;29.20;99260.00;;;;4972282;28;87978;-61
2022/08/04 10:32:41;;;;;;;8.00;4.95;;;28.50;95.20;29.00;99251.00;;;;4994764;28;87721;-61
2022/08/04 10:35:17;;;;;;;7.72;4.95;;;28.40;88.90;28.80;99255.00;;;;4993238;28;87083;-61
2022/08/04 10:38:18;;;;;;;9.80;5.50;;;28.10;90.60;28.60;99266.00;;;;4987792;28;88592;-61
2022/08/04 10:40:48;;;;;;;13.80;6.00;;;28.00;99.90;28.40;99253.00;;;;4991903;28;88110;-60
2022/08/04 10:44:22;;;;;;;8.07;5.72;;;28.00;99.90;28.50;99251.00;;;;4991197;28;87962;-60
2022/08/04 10:47:01;;;;;;;7.78;5.60;;;28.30;90.00;28.70;99255.00;;;;4962510;28;88620;-60
2022/08/04 10:49:46;;;;;;;11.05;6.03;;;28.50;90.50;28.90;99250.00;;;;4994806;28;87394;-61
2022/08/04 10:52:34;;;;;;;10.32;6.07;;;28.70;91.10;29.10;99258.00;;;;4991801;28;87792;-61
2022/08/04 10:55:17;;;;;;;10.35;6.68;;;28.70;99.90;29.10;99263.00;;;;4985037;28;87401;-61
2022/08/04 10:57:51;;;;;;;13.23;7.03;;;28.40;99.90;29.00;99255.00;;;;4971324;28;87342;-61
2022/08/04 11:00:29;;;;;;;11.25;5.97;;;28.40;91.20;28.90;99250.00;;;;4999178;28;87607;-61
2022/08/04 11:03:21;;;;;;;10.57;6.53;;;28.30;99.90;28.80;99264.00;;;;4995872;28;87381;-61
2022/08/04 11:05:57;;;;;;;15.70;6.75;;;28.50;99.90;28.80;99263.00;;;;4995936;28;87912;-61
2022/08/04 11:08:42;;;;;;;10.60;5.80;;;28.20;91.60;28.70;99262.00;;;;4998213;28;87364;-61
2022/08/04 11:11:37;;;;;;;13.35;6.50;;;28.10;91.60;28.50;99272.00;;;;4992503;28;90465;-61
2022/08/04 11:14:19;;;;;;;7.40;5.43;;;28.00;91.60;28.40;99276.00;;;;4993289;28;88794;-61
2022/08/04 11:16:52;;;;;;;10.18;6.28;;;;;28.40;99279.00;;;;4998453;28;87004;-61
2022/08/04 11:19:36;;;;;;;11.88;5.78;;;27.90;92.70;28.30;99272.00;;;;4964737;28;87367;-61
2022/08/04 11:22:08;;;;;;;9.57;6.20;;;27.60;93.40;28.10;99273.00;;;;4980971;28;87431;-61
2022/08/04 11:24:53;;;;;;;9.90;5.90;;;27.40;93.90;27.80;99275.00;;;;4996744;28;86940;-61
2022/08/04 11:28:13;;;;;;;11.38;6.63;;;27.50;99.90;27.70;99279.00;;;;4988197;28;87153;-61
2022/08/04 11:30:55;;;;;;;15.70;6.57;;;27.30;94.90;27.70;99271.00;;;;4991812;28;87235;-61
2022/08/04 11:33:49;;;;;;;11.88;6.63;;;27.00;99.90;27.60;99279.00;;;;4985930;28;88995;-62
2022/08/04 11:36:45;;;;;;;14.45;6.80;;;27.30;94.90;27.60;99270.00;;;;4994697;28;88684;-61
2022/08/04 11:39:17;;;;;;;11.30;6.82;;;27.10;99.90;27.70;99269.00;;;;4987346;28;86947;-60
2022/08/04 11:41:55;;;;;;;12.45;7.15;;;;;27.70;99262.00;;;;4987387;28;87074;-60
2022/08/04 11:44:35;;;;;;;11.48;7.00;;;27.30;98.00;27.70;99264.00;;;;4972293;28;87496;-60
2022/08/04 11:47:10;;;;;;;11.75;6.80;;;27.40;95.00;27.80;99262.00;;;;4992694;28;88672;-61
2022/08/04 11:49:40;;;;;;;10.18;6.43;;;;;27.80;99260.00;;;;4969362;28;87379;-61
2022/08/04 11:52:08;;;;;;;13.32;7.13;;;27.60;94.80;28.00;99260.00;;;;4987860;28;86488;-61
2022/08/04 11:54:36;;;;;;;9.65;7.13;;;;;28.10;99256.00;;;;4988532;28;88217;-61
2022/08/04 11:57:03;;;;;;;13.48;6.70;;;;;28.30;99248.00;;;;4972877;28;89776;-62
2022/08/04 11:59:34;;;;;;;11.20;7.35;;;28.10;92.40;28.50;99255.00;;;;4971316;28;88470;-59
2022/08/04 12:02:10;;;;;;;9.65;6.35;;;;;28.60;99246.00;;;;4990985;28;86903;-60
2022/08/04 12:04:56;;;;;;;8.63;6.88;;;28.30;92.80;28.80;99255.00;;;;4990981;28;87363;-60
2022/08/04 12:07:44;;;;;;;11.63;6.65;;;28.50;99.90;28.90;99248.00;;;;4992528;28;87461;-62
2022/08/04 12:11:02;;;;;;;10.15;6.72;;;28.40;90.80;28.90;99248.00;;;;4994493;28;87092;-61